CDT,Max TemperatureF,Mean TemperatureF,Min TemperatureF,Max Dew PointF,MeanDew PointF,Min DewpointF,Max Humidity, Mean Humidity, Min Humidity, Max Sea Level PressureIn, Mean Sea Level PressureIn, Min Sea Level PressureIn, Max VisibilityMiles, Mean VisibilityMiles, Min VisibilityMiles, Max Wind SpeedMPH, Mean Wind SpeedMPH, Max Gust SpeedMPH,PrecipitationIn, CloudCover, Events, WindDirDegrees
2012-3-1,63,48,34,38,33,31,92,57,29,29.99,29.92,29.85,10,10,10,13,7,,0.00,0,,248
2012-3-2,75,58,41,64,55,34,100,79,55,29.84,29.64,29.48,10,6,0,37,11,58,0.80,6,Rain-Thunderstorm,192
2012-3-3,52,42,32,35,28,23,92,60,33,29.97,29.91,29.84,10,10,10,14,9,,0.00,1,,290
2012-3-4,45,34,24,32,25,21,89,61,40,30.01,29.97,29.86,10,10,6,18,9,,0.00,3,Rain,270
2012-3-5,46,34,21,34,27,19,100,75,40,30.53,30.26,29.84,10,8,0,26,15,38,0.00,5,Fog-Rain-Snow,314
2012-3-6,68,45,22,25,20,13,88,38,14,30.52,30.44,30.35,10,10,10,18,6,,0.00,0,,164
2012-3-7,66,57,48,47,39,24,64,48,35,30.46,30.37,30.27,10,10,10,21,14,,0.00,1,,164
2012-3-8,61,51,39,57,52,38,100,92,62,30.34,30.19,30.09,10,3,0,20,10,,2.20,7,Fog-Rain,173
2012-3-9,56,44,32,37,29,19,96,61,30,30.50,30.44,30.31,10,10,10,13,7,,0.00,0,,358
2012-3-10,59,44,29,30,25,19,92,56,28,30.55,30.47,30.40,10,10,10,13,5,,0.00,0,,21
2012-3-11,68,48,28,45,35,25,92,54,25,30.49,30.38,30.27,10,10,10,10,4,,0.00,0,,139
2012-3-12,66,62,59,57,53,45,84,70,56,30.27,30.19,30.14,10,10,10,20,13,26,0.00,6,,167
2012-3-13,77,64,52,61,56,50,96,78,43,30.21,30.18,30.13,10,10,10,15,9,,0.00,3,,221
2012-3-14,77,60,43,58,50,44,100,74,39,30.28,30.23,30.19,10,10,10,10,2,,0.00,0,,212
2012-3-15,81,68,54,64,58,51,100,81,47,30.30,30.23,30.15,10,8,0,24,7,44,0.47,4,Fog-Rain-Thunderstorm,239
2012-3-16,66,59,52,62,58,53,100,92,76,30.26,30.21,30.17,10,8,1,9,4,,0.12,4,Rain,159
2012-3-17,77,64,52,63,59,52,100,86,54,30.28,30.21,30.14,10,7,1,18,5,,0.22,4,Rain-Thunderstorm,215
2012-3-18,79,66,54,61,58,55,100,82,48,30.27,30.20,30.13,10,9,1,14,7,,0.11,3,Rain-Thunderstorm,174
2012-3-19,81,64,48,60,55,49,100,74,39,30.21,30.15,30.09,10,10,10,12,2,,0.00,0,,239
2012-3-20,84,69,54,64,57,53,93,70,36,30.18,30.11,30.05,10,10,10,9,2,,0.00,1,Thunderstorm,97
2012-3-21,83,68,54,60,56,53,93,67,37,30.22,30.16,30.10,10,10,10,12,3,,0.00,0,,153
2012-3-22,79,69,59,61,58,53,90,66,48,30.20,30.14,30.08,10,10,10,14,5,,0.00,1,,165
2012-3-23,73,65,56,64,60,55,97,81,61,30.10,29.98,29.83,10,7,0,18,6,,0.20,5,Rain-Thunderstorm,152
2012-3-24,61,53,43,56,48,44,100,80,53,29.94,29.90,29.84,10,10,10,14,3,,0.00,4,,268
2012-3-25,70,54,37,55,44,37,100,89,47,30.04,29.94,29.90,10,5,0,12,1,,0.00,1,Fog,335
2012-3-26,70,56,42,58,48,36,100,84,47,30.25,30.12,30.04,10,5,0,14,3,,0.00,2,Fog,12
2012-3-27,77,58,39,52,41,32,89,59,33,30.29,30.20,30.11,10,10,10,8,5,,0.00,0,,32
2012-3-28,79,64,50,57,53,47,96,64,44,30.13,30.04,29.97,10,10,10,20,8,,0.00,1,,227
2012-3-29,75,61,47,56,49,42,100,80,35,30.06,30.01,29.96,10,6,0,9,1,,0.00,1,Fog,23
2012-3-30,77,62,47,63,57,47,100,79,54,29.97,29.91,29.86,10,9,2,16,4,,0.02,1,Rain-Thunderstorm,216
2012-3-31,73,62,50,63,56,51,100,94,50,29.94,29.89,29.83,10,5,0,10,3,,0.00,4,Fog-Rain-Thunderstorm,290